sensor_id;sensor_type;location;lat;lon;timestamp;P1;durP1;ratioP1;P2;durP2;ratioP2
3563;SDS011;1796;52.388;13.096;2023-05-14T00:01:52;12.17;;;9.73;;
3563;SDS011;1796;52.388;13.096;2023-05-14T00:04:19;11.80;;;10.20;;
3563;SDS011;1796;52.388;13.096;2023-05-14T00:06:47;13.20;;;10.70;;
3563;SDS011;1796;52.388;13.096;2023-05-14T00:09:14;13.63;;;10.43;;
3563;SDS011;1796;52.388;13.096;2023-05-14T00:11:40;11.07;;;9.50;;
3563;SDS011;1796;52.388;13.096;2023-05-14T00:14:07;13.90;;;10.87;;
3563;SDS011;1796;52.388;13.096;2023-05-14T00:16:34;23.83;;;10.70;;
3563;SDS011;1796;52.388;13.096;2023-05-14T00:19:01;13.17;;;10.00;;
3563;SDS011;1796;52.388;13.096;2023-05-14T00:21:28;14.10;;;10.80;;
3563;SDS011;1796;52.388;13.096;2023-05-14T00:23:57;11.97;;;10.70;;
3563;SDS011;1796;52.388;13.096;2023-05-14T00:26:24;16.17;;;12.50;;
3563;SDS011;1796;52.388;13.096;2023-05-14T00:28:50;17.97;;;12.77;;
3563;SDS011;1796;52.388;13.096;2023-05-14T00:31:17;16.57;;;12.47;;
3563;SDS011;1796;52.388;13.096;2023-05-14T00:33:44;13.30;;;11.70;;
3563;SDS011;1796;52.388;13.096;2023-05-14T00:36:11;16.17;;;11.63;;
3563;SDS011;1796;52.388;13.096;2023-05-14T00:38:38;16.90;;;12.03;;
3563;SDS011;1796;52.388;13.096;2023-05-14T00:41:06;17.07;;;12.67;;
3563;SDS011;1796;52.388;13.096;2023-05-14T00:43:33;14.20;;;11.83;;
3563;SDS011;1796;52.388;13.096;2023-05-14T00:46:00;12.70;;;11.33;;
3563;SDS011;1796;52.388;13.096;2023-05-14T00:48:27;16.33;;;11.83;;
3563;SDS011;1796;52.388;13.096;2023-05-14T00:50:54;18.33;;;11.03;;
3563;SDS011;1796;52.388;13.096;2023-05-14T00:53:21;15.50;;;11.17;;
3563;SDS011;1796;52.388;13.096;2023-05-14T00:55:48;19.80;;;10.40;;
3563;SDS011;1796;52.388;13.096;2023-05-14T00:58:17;13.30;;;10.27;;
3563;SDS011;1796;52.388;13.096;2023-05-14T01:00:44;12.13;;;10.83;;
3563;SDS011;1796;52.388;13.096;2023-05-14T01:03:11;13.00;;;10.50;;
3563;SDS011;1796;52.388;13.096;2023-05-14T01:05:40;14.40;;;10.90;;
3563;SDS011;1796;52.388;13.096;2023-05-14T01:08:12;10.27;;;9.23;;
3563;SDS011;1796;52.388;13.096;2023-05-14T01:10:48;15.03;;;11.07;;
3563;SDS011;1796;52.388;13.096;2023-05-14T01:13:21;19.13;;;10.40;;
3563;SDS011;1796;52.388;13.096;2023-05-14T01:15:55;20.57;;;11.47;;
3563;SDS011;1796;52.388;13.096;2023-05-14T01:18:23;14.83;;;11.97;;
3563;SDS011;1796;52.388;13.096;2023-05-14T01:20:53;12.20;;;10.07;;
3563;SDS011;1796;52.388;13.096;2023-05-14T01:23:21;20.30;;;10.53;;
3563;SDS011;1796;52.388;13.096;2023-05-14T01:25:48;14.87;;;10.60;;
3563;SDS011;1796;52.388;13.096;2023-05-14T01:28:16;18.00;;;11.20;;
3563;SDS011;1796;52.388;13.096;2023-05-14T01:30:47;12.07;;;10.73;;
3563;SDS011;1796;52.388;13.096;2023-05-14T01:33:25;17.27;;;12.00;;
3563;SDS011;1796;52.388;13.096;2023-05-14T01:35:54;11.17;;;10.00;;
3563;SDS011;1796;52.388;13.096;2023-05-14T01:38:23;15.70;;;10.93;;
3563;SDS011;1796;52.388;13.096;2023-05-14T01:40:54;15.30;;;11.23;;
3563;SDS011;1796;52.388;13.096;2023-05-14T01:43:22;13.63;;;10.83;;
3563;SDS011;1796;52.388;13.096;2023-05-14T01:45:49;14.80;;;11.43;;
3563;SDS011;1796;52.388;13.096;2023-05-14T01:48:16;29.33;;;11.50;;
3563;SDS011;1796;52.388;13.096;2023-05-14T01:50:43;15.03;;;11.40;;
3563;SDS011;1796;52.388;13.096;2023-05-14T01:53:10;14.10;;;11.10;;
3563;SDS011;1796;52.388;13.096;2023-05-14T01:55:38;15.93;;;10.77;;
3563;SDS011;1796;52.388;13.096;2023-05-14T01:58:05;13.83;;;10.57;;
3563;SDS011;1796;52.388;13.096;2023-05-14T02:00:32;14.03;;;10.97;;
3563;SDS011;1796;52.388;13.096;2023-05-14T02:02:59;18.30;;;11.33;;
3563;SDS011;1796;52.388;13.096;2023-05-14T02:05:25;16.90;;;11.43;;
3563;SDS011;1796;52.388;13.096;2023-05-14T02:07:52;16.90;;;10.53;;
3563;SDS011;1796;52.388;13.096;2023-05-14T02:10:19;16.63;;;11.43;;
3563;SDS011;1796;52.388;13.096;2023-05-14T02:12:47;13.50;;;11.83;;
3563;SDS011;1796;52.388;13.096;2023-05-14T02:15:14;15.73;;;11.30;;
3563;SDS011;1796;52.388;13.096;2023-05-14T02:17:41;19.53;;;11.47;;
3563;SDS011;1796;52.388;13.096;2023-05-14T02:20:08;11.33;;;10.17;;
3563;SDS011;1796;52.388;13.096;2023-05-14T02:22:36;16.77;;;12.23;;
3563;SDS011;1796;52.388;13.096;2023-05-14T02:25:06;19.40;;;11.57;;
3563;SDS011;1796;52.388;13.096;2023-05-14T02:27:34;13.03;;;10.23;;
3563;SDS011;1796;52.388;13.096;2023-05-14T02:30:02;12.40;;;11.10;;
3563;SDS011;1796;52.388;13.096;2023-05-14T02:32:30;16.90;;;11.40;;
3563;SDS011;1796;52.388;13.096;2023-05-14T02:34:57;15.57;;;11.60;;
3563;SDS011;1796;52.388;13.096;2023-05-14T02:37:24;18.90;;;11.03;;
3563;SDS011;1796;52.388;13.096;2023-05-14T02:39:50;15.93;;;10.80;;
3563;SDS011;1796;52.388;13.096;2023-05-14T02:42:18;14.70;;;11.20;;
3563;SDS011;1796;52.388;13.096;2023-05-14T02:44:44;18.97;;;11.03;;
3563;SDS011;1796;52.388;13.096;2023-05-14T02:47:12;16.33;;;11.53;;
3563;SDS011;1796;52.388;13.096;2023-05-14T02:49:39;14.10;;;11.80;;
3563;SDS011;1796;52.388;13.096;2023-05-14T02:52:06;12.43;;;11.07;;
3563;SDS011;1796;52.388;13.096;2023-05-14T02:54:33;14.87;;;11.00;;
3563;SDS011;1796;52.388;13.096;2023-05-14T02:57:00;14.53;;;11.63;;
3563;SDS011;1796;52.388;13.096;2023-05-14T02:59:27;16.30;;;11.90;;
3563;SDS011;1796;52.388;13.096;2023-05-14T03:01:55;13.03;;;11.23;;
3563;SDS011;1796;52.388;13.096;2023-05-14T03:04:24;17.27;;;12.00;;
3563;SDS011;1796;52.388;13.096;2023-05-14T03:06:50;14.93;;;11.60;;
3563;SDS011;1796;52.388;13.096;2023-05-14T03:09:17;18.20;;;11.60;;
3563;SDS011;1796;52.388;13.096;2023-05-14T03:11:45;15.90;;;11.97;;
3563;SDS011;1796;52.388;13.096;2023-05-14T03:14:12;14.33;;;11.70;;
3563;SDS011;1796;52.388;13.096;2023-05-14T03:16:38;20.33;;;12.17;;
3563;SDS011;1796;52.388;13.096;2023-05-14T03:19:06;15.20;;;11.23;;
3563;SDS011;1796;52.388;13.096;2023-05-14T03:21:35;17.67;;;12.87;;
3563;SDS011;1796;52.388;13.096;2023-05-14T03:24:02;15.93;;;12.10;;
3563;SDS011;1796;52.388;13.096;2023-05-14T03:26:29;19.80;;;11.60;;
3563;SDS011;1796;52.388;13.096;2023-05-14T03:28:56;14.60;;;12.00;;
3563;SDS011;1796;52.388;13.096;2023-05-14T03:31:22;20.77;;;11.87;;
3563;SDS011;1796;52.388;13.096;2023-05-14T03:33:49;14.80;;;10.73;;
3563;SDS011;1796;52.388;13.096;2023-05-14T03:36:16;16.37;;;11.30;;
3563;SDS011;1796;52.388;13.096;2023-05-14T03:38:45;13.30;;;11.13;;
3563;SDS011;1796;52.388;13.096;2023-05-14T03:41:12;11.50;;;10.03;;
3563;SDS011;1796;52.388;13.096;2023-05-14T03:43:38;14.80;;;10.90;;
3563;SDS011;1796;52.388;13.096;2023-05-14T03:46:05;14.13;;;11.03;;
3563;SDS011;1796;52.388;13.096;2023-05-14T03:48:32;16.83;;;12.13;;
3563;SDS011;1796;52.388;13.096;2023-05-14T03:50:59;17.17;;;11.30;;
3563;SDS011;1796;52.388;13.096;2023-05-14T03:53:26;14.13;;;10.90;;
3563;SDS011;1796;52.388;13.096;2023-05-14T03:55:54;14.47;;;11.23;;
3563;SDS011;1796;52.388;13.096;2023-05-14T03:58:21;16.13;;;11.50;;
3563;SDS011;1796;52.388;13.096;2023-05-14T04:00:48;13.87;;;11.13;;
3563;SDS011;1796;52.388;13.096;2023-05-14T04:03:14;15.67;;;11.50;;
3563;SDS011;1796;52.388;13.096;2023-05-14T04:05:41;16.70;;;10.90;;
3563;SDS011;1796;52.388;13.096;2023-05-14T04:08:08;12.77;;;11.43;;
3563;SDS011;1796;52.388;13.096;2023-05-14T04:10:35;22.43;;;11.70;;
3563;SDS011;1796;52.388;13.096;2023-05-14T04:13:03;15.10;;;11.83;;
3563;SDS011;1796;52.388;13.096;2023-05-14T04:15:30;13.80;;;10.50;;
3563;SDS011;1796;52.388;13.096;2023-05-14T04:17:57;13.00;;;10.10;;
3563;SDS011;1796;52.388;13.096;2023-05-14T04:20:24;21.27;;;10.73;;
3563;SDS011;1796;52.388;13.096;2023-05-14T04:22:52;15.83;;;10.43;;
3563;SDS011;1796;52.388;13.096;2023-05-14T04:25:19;16.03;;;10.67;;
3563;SDS011;1796;52.388;13.096;2023-05-14T04:27:46;13.53;;;9.43;;
3563;SDS011;1796;52.388;13.096;2023-05-14T04:30:14;11.63;;;9.10;;
3563;SDS011;1796;52.388;13.096;2023-05-14T04:32:41;19.23;;;9.70;;
3563;SDS011;1796;52.388;13.096;2023-05-14T04:35:08;13.33;;;9.87;;
3563;SDS011;1796;52.388;13.096;2023-05-14T04:37:36;9.43;;;8.50;;
3563;SDS011;1796;52.388;13.096;2023-05-14T04:40:05;12.53;;;8.97;;
3563;SDS011;1796;52.388;13.096;2023-05-14T04:42:33;21.13;;;9.50;;
3563;SDS011;1796;52.388;13.096;2023-05-14T04:44:59;11.07;;;8.47;;
3563;SDS011;1796;52.388;13.096;2023-05-14T04:47:30;11.37;;;8.50;;
3563;SDS011;1796;52.388;13.096;2023-05-14T04:49:57;9.57;;;7.60;;
3563;SDS011;1796;52.388;13.096;2023-05-14T04:52:24;18.03;;;8.70;;
3563;SDS011;1796;52.388;13.096;2023-05-14T04:54:51;11.50;;;6.93;;
3563;SDS011;1796;52.388;13.096;2023-05-14T04:57:18;8.60;;;6.70;;
3563;SDS011;1796;52.388;13.096;2023-05-14T04:59:45;7.47;;;6.53;;
3563;SDS011;1796;52.388;13.096;2023-05-14T05:02:11;7.67;;;6.13;;
3563;SDS011;1796;52.388;13.096;2023-05-14T05:04:40;7.50;;;6.67;;
3563;SDS011;1796;52.388;13.096;2023-05-14T05:07:06;11.20;;;6.77;;
3563;SDS011;1796;52.388;13.096;2023-05-14T05:09:33;9.00;;;6.73;;
3563;SDS011;1796;52.388;13.096;2023-05-14T05:12:00;13.00;;;7.00;;
3563;SDS011;1796;52.388;13.096;2023-05-14T05:14:27;7.37;;;6.63;;
3563;SDS011;1796;52.388;13.096;2023-05-14T05:16:54;6.93;;;6.00;;
3563;SDS011;1796;52.388;13.096;2023-05-14T05:19:21;8.33;;;6.63;;
3563;SDS011;1796;52.388;13.096;2023-05-14T05:21:49;6.40;;;5.80;;
3563;SDS011;1796;52.388;13.096;2023-05-14T05:24:16;9.60;;;5.63;;
3563;SDS011;1796;52.388;13.096;2023-05-14T05:26:43;11.67;;;5.63;;
3563;SDS011;1796;52.388;13.096;2023-05-14T05:29:10;6.77;;;5.67;;
3563;SDS011;1796;52.388;13.096;2023-05-14T05:31:37;7.63;;;5.57;;
3563;SDS011;1796;52.388;13.096;2023-05-14T05:34:03;9.73;;;6.40;;
3563;SDS011;1796;52.388;13.096;2023-05-14T05:36:30;10.57;;;4.70;;
3563;SDS011;1796;52.388;13.096;2023-05-14T05:38:59;9.57;;;5.57;;
3563;SDS011;1796;52.388;13.096;2023-05-14T05:41:26;7.13;;;5.67;;
3563;SDS011;1796;52.388;13.096;2023-05-14T05:43:54;8.20;;;5.70;;
3563;SDS011;1796;52.388;13.096;2023-05-14T05:46:21;9.10;;;5.80;;
3563;SDS011;1796;52.388;13.096;2023-05-14T05:48:47;8.97;;;6.27;;
3563;SDS011;1796;52.388;13.096;2023-05-14T05:51:14;10.93;;;6.50;;
3563;SDS011;1796;52.388;13.096;2023-05-14T05:53:41;8.90;;;5.87;;
3563;SDS011;1796;52.388;13.096;2023-05-14T05:56:09;8.17;;;5.37;;
3563;SDS011;1796;52.388;13.096;2023-05-14T05:58:37;8.83;;;5.93;;
3563;SDS011;1796;52.388;13.096;2023-05-14T06:01:04;8.40;;;5.57;;
3563;SDS011;1796;52.388;13.096;2023-05-14T06:03:30;10.73;;;5.60;;
3563;SDS011;1796;52.388;13.096;2023-05-14T06:05:57;7.90;;;5.10;;
3563;SDS011;1796;52.388;13.096;2023-05-14T06:08:24;14.60;;;5.60;;
3563;SDS011;1796;52.388;13.096;2023-05-14T06:10:51;7.03;;;5.43;;
3563;SDS011;1796;52.388;13.096;2023-05-14T06:13:19;5.40;;;4.90;;
3563;SDS011;1796;52.388;13.096;2023-05-14T06:15:46;9.57;;;6.10;;
3563;SDS011;1796;52.388;13.096;2023-05-14T06:18:13;10.40;;;6.10;;
3563;SDS011;1796;52.388;13.096;2023-05-14T06:20:40;6.60;;;5.47;;
3563;SDS011;1796;52.388;13.096;2023-05-14T06:23:07;8.00;;;5.57;;
3563;SDS011;1796;52.388;13.096;2023-05-14T06:25:35;8.50;;;4.83;;
3563;SDS011;1796;52.388;13.096;2023-05-14T06:28:02;13.13;;;5.67;;
3563;SDS011;1796;52.388;13.096;2023-05-14T06:30:30;5.30;;;4.80;;
3563;SDS011;1796;52.388;13.096;2023-05-14T06:32:57;5.10;;;4.60;;
3563;SDS011;1796;52.388;13.096;2023-05-14T06:35:24;5.60;;;4.90;;
3563;SDS011;1796;52.388;13.096;2023-05-14T06:37:50;10.03;;;5.53;;
3563;SDS011;1796;52.388;13.096;2023-05-14T06:40:17;12.70;;;6.20;;
3563;SDS011;1796;52.388;13.096;2023-05-14T06:42:44;11.13;;;5.80;;
3563;SDS011;1796;52.388;13.096;2023-05-14T06:45:11;7.97;;;5.00;;
3563;SDS011;1796;52.388;13.096;2023-05-14T06:47:40;6.17;;;5.30;;
3563;SDS011;1796;52.388;13.096;2023-05-14T06:50:07;9.37;;;5.67;;
3563;SDS011;1796;52.388;13.096;2023-05-14T06:52:34;5.60;;;5.00;;
3563;SDS011;1796;52.388;13.096;2023-05-14T06:55:01;8.13;;;6.10;;
3563;SDS011;1796;52.388;13.096;2023-05-14T06:57:28;9.10;;;5.60;;
3563;SDS011;1796;52.388;13.096;2023-05-14T06:59:55;8.17;;;6.00;;
3563;SDS011;1796;52.388;13.096;2023-05-14T07:02:22;9.83;;;5.10;;
3563;SDS011;1796;52.388;13.096;2023-05-14T07:04:50;7.30;;;5.10;;
3563;SDS011;1796;52.388;13.096;2023-05-14T07:07:17;7.07;;;5.57;;
3563;SDS011;1796;52.388;13.096;2023-05-14T07:09:45;12.40;;;5.87;;
3563;SDS011;1796;52.388;13.096;2023-05-14T07:12:12;7.73;;;5.03;;
3563;SDS011;1796;52.388;13.096;2023-05-14T07:14:39;17.33;;;5.40;;
3563;SDS011;1796;52.388;13.096;2023-05-14T07:17:06;6.63;;;4.83;;
3563;SDS011;1796;52.388;13.096;2023-05-14T07:19:32;8.20;;;5.27;;
3563;SDS011;1796;52.388;13.096;2023-05-14T07:22:01;13.60;;;5.50;;
3563;SDS011;1796;52.388;13.096;2023-05-14T07:24:27;11.43;;;6.23;;
3563;SDS011;1796;52.388;13.096;2023-05-14T07:26:54;6.77;;;4.87;;
3563;SDS011;1796;52.388;13.096;2023-05-14T07:29:22;11.20;;;5.60;;
3563;SDS011;1796;52.388;13.096;2023-05-14T07:31:50;6.73;;;5.83;;
3563;SDS011;1796;52.388;13.096;2023-05-14T07:34:17;10.47;;;5.67;;
3563;SDS011;1796;52.388;13.096;2023-05-14T07:36:43;6.63;;;5.67;;
3563;SDS011;1796;52.388;13.096;2023-05-14T07:39:12;19.97;;;6.10;;
3563;SDS011;1796;52.388;13.096;2023-05-14T07:41:39;5.97;;;5.37;;
3563;SDS011;1796;52.388;13.096;2023-05-14T07:44:06;9.10;;;5.23;;
3563;SDS011;1796;52.388;13.096;2023-05-14T07:46:32;9.97;;;5.47;;
3563;SDS011;1796;52.388;13.096;2023-05-14T07:48:59;9.53;;;5.40;;
3563;SDS011;1796;52.388;13.096;2023-05-14T07:51:26;5.67;;;5.10;;
3563;SDS011;1796;52.388;13.096;2023-05-14T07:53:53;7.07;;;4.90;;
3563;SDS011;1796;52.388;13.096;2023-05-14T07:56:22;5.90;;;5.00;;
3563;SDS011;1796;52.388;13.096;2023-05-14T07:58:48;7.03;;;5.00;;
3563;SDS011;1796;52.388;13.096;2023-05-14T08:01:15;5.50;;;4.60;;
3563;SDS011;1796;52.388;13.096;2023-05-14T08:03:42;9.83;;;5.10;;
3563;SDS011;1796;52.388;13.096;2023-05-14T08:06:09;6.07;;;5.40;;
3563;SDS011;1796;52.388;13.096;2023-05-14T08:08:36;8.00;;;4.20;;
3563;SDS011;1796;52.388;13.096;2023-05-14T08:11:03;7.13;;;4.40;;
3563;SDS011;1796;52.388;13.096;2023-05-14T08:13:32;9.60;;;5.10;;
3563;SDS011;1796;52.388;13.096;2023-05-14T08:15:59;5.10;;;4.60;;
3563;SDS011;1796;52.388;13.096;2023-05-14T08:18:26;5.27;;;4.03;;
3563;SDS011;1796;52.388;13.096;2023-05-14T08:20:53;9.40;;;3.77;;
3563;SDS011;1796;52.388;13.096;2023-05-14T08:23:20;4.53;;;4.10;;
3563;SDS011;1796;52.388;13.096;2023-05-14T08:25:47;4.53;;;4.13;;
3563;SDS011;1796;52.388;13.096;2023-05-14T08:28:14;15.80;;;4.20;;
3563;SDS011;1796;52.388;13.096;2023-05-14T08:30:42;4.17;;;3.70;;
3563;SDS011;1796;52.388;13.096;2023-05-14T08:33:09;10.73;;;3.33;;
3563;SDS011;1796;52.388;13.096;2023-05-14T08:35:35;5.00;;;4.20;;
3563;SDS011;1796;52.388;13.096;2023-05-14T08:38:02;6.70;;;4.77;;
3563;SDS011;1796;52.388;13.096;2023-05-14T08:40:29;5.20;;;4.20;;
3563;SDS011;1796;52.388;13.096;2023-05-14T08:42:56;4.10;;;3.80;;
3563;SDS011;1796;52.388;13.096;2023-05-14T08:45:26;5.60;;;3.60;;
3563;SDS011;1796;52.388;13.096;2023-05-14T08:48:04;6.20;;;4.20;;
3563;SDS011;1796;52.388;13.096;2023-05-14T08:50:33;7.23;;;3.30;;
3563;SDS011;1796;52.388;13.096;2023-05-14T08:53:01;6.63;;;4.23;;
3563;SDS011;1796;52.388;13.096;2023-05-14T08:55:27;6.80;;;3.83;;
3563;SDS011;1796;52.388;13.096;2023-05-14T08:57:57;5.77;;;4.93;;
3563;SDS011;1796;52.388;13.096;2023-05-14T09:00:25;7.43;;;4.30;;
3563;SDS011;1796;52.388;13.096;2023-05-14T09:02:52;10.00;;;3.63;;
3563;SDS011;1796;52.388;13.096;2023-05-14T09:05:20;6.00;;;4.80;;
3563;SDS011;1796;52.388;13.096;2023-05-14T09:07:48;4.67;;;4.27;;
3563;SDS011;1796;52.388;13.096;2023-05-14T09:10:15;9.00;;;4.10;;
3563;SDS011;1796;52.388;13.096;2023-05-14T09:12:42;8.23;;;4.47;;
3563;SDS011;1796;52.388;13.096;2023-05-14T09:15:09;8.80;;;4.73;;
3563;SDS011;1796;52.388;13.096;2023-05-14T09:17:36;6.23;;;3.40;;
3563;SDS011;1796;52.388;13.096;2023-05-14T09:20:04;4.50;;;3.50;;
3563;SDS011;1796;52.388;13.096;2023-05-14T09:22:33;6.43;;;3.63;;
3563;SDS011;1796;52.388;13.096;2023-05-14T09:25:01;7.60;;;3.83;;
3563;SDS011;1796;52.388;13.096;2023-05-14T09:27:29;5.13;;;3.57;;
3563;SDS011;1796;52.388;13.096;2023-05-14T09:30:03;7.97;;;3.90;;
3563;SDS011;1796;52.388;13.096;2023-05-14T09:32:34;6.50;;;3.80;;
3563;SDS011;1796;52.388;13.096;2023-05-14T09:35:09;13.33;;;3.90;;
3563;SDS011;1796;52.388;13.096;2023-05-14T09:37:38;8.73;;;3.50;;
3563;SDS011;1796;52.388;13.096;2023-05-14T09:40:09;3.77;;;3.40;;
3563;SDS011;1796;52.388;13.096;2023-05-14T09:42:36;4.67;;;4.10;;
3563;SDS011;1796;52.388;13.096;2023-05-14T09:45:05;4.30;;;3.90;;
3563;SDS011;1796;52.388;13.096;2023-05-14T09:47:33;4.23;;;3.40;;
3563;SDS011;1796;52.388;13.096;2023-05-14T09:50:00;3.70;;;3.40;;
3563;SDS011;1796;52.388;13.096;2023-05-14T09:52:27;9.43;;;4.00;;
3563;SDS011;1796;52.388;13.096;2023-05-14T09:54:55;5.97;;;3.60;;
3563;SDS011;1796;52.388;13.096;2023-05-14T09:57:22;3.90;;;3.53;;
3563;SDS011;1796;52.388;13.096;2023-05-14T09:59:50;6.30;;;4.03;;
3563;SDS011;1796;52.388;13.096;2023-05-14T10:02:20;4.60;;;3.80;;
3563;SDS011;1796;52.388;13.096;2023-05-14T10:04:49;7.43;;;4.20;;
3563;SDS011;1796;52.388;13.096;2023-05-14T10:07:19;4.63;;;3.83;;
3563;SDS011;1796;52.388;13.096;2023-05-14T10:09:48;12.70;;;3.30;;
3563;SDS011;1796;52.388;13.096;2023-05-14T10:12:21;3.40;;;3.13;;
3563;SDS011;1796;52.388;13.096;2023-05-14T10:14:49;5.13;;;3.80;;
3563;SDS011;1796;52.388;13.096;2023-05-14T10:17:19;5.60;;;3.80;;
3563;SDS011;1796;52.388;13.096;2023-05-14T10:19:49;4.00;;;3.20;;
3563;SDS011;1796;52.388;13.096;2023-05-14T10:22:20;7.77;;;3.93;;
3563;SDS011;1796;52.388;13.096;2023-05-14T10:24:49;4.03;;;3.10;;
3563;SDS011;1796;52.388;13.096;2023-05-14T10:27:17;3.90;;;3.40;;
3563;SDS011;1796;52.388;13.096;2023-05-14T10:29:49;6.07;;;3.33;;
3563;SDS011;1796;52.388;13.096;2023-05-14T10:32:19;8.10;;;3.40;;
3563;SDS011;1796;52.388;13.096;2023-05-14T10:34:48;5.23;;;3.50;;
3563;SDS011;1796;52.388;13.096;2023-05-14T10:37:16;5.47;;;3.13;;
3563;SDS011;1796;52.388;13.096;2023-05-14T10:39:44;5.23;;;3.60;;
3563;SDS011;1796;52.388;13.096;2023-05-14T10:42:12;5.13;;;3.77;;
3563;SDS011;1796;52.388;13.096;2023-05-14T10:44:47;8.87;;;3.40;;
3563;SDS011;1796;52.388;13.096;2023-05-14T10:47:18;5.13;;;3.30;;
3563;SDS011;1796;52.388;13.096;2023-05-14T10:49:45;6.13;;;3.63;;
3563;SDS011;1796;52.388;13.096;2023-05-14T10:52:17;3.57;;;3.27;;
3563;SDS011;1796;52.388;13.096;2023-05-14T10:54:47;6.47;;;3.50;;
3563;SDS011;1796;52.388;13.096;2023-05-14T10:57:16;11.53;;;3.30;;
3563;SDS011;1796;52.388;13.096;2023-05-14T10:59:45;10.30;;;4.10;;
3563;SDS011;1796;52.388;13.096;2023-05-14T11:02:18;3.73;;;3.37;;
3563;SDS011;1796;52.388;13.096;2023-05-14T11:04:54;3.67;;;3.23;;
3563;SDS011;1796;52.388;13.096;2023-05-14T11:07:24;5.70;;;3.67;;
3563;SDS011;1796;52.388;13.096;2023-05-14T11:09:55;6.83;;;3.20;;
3563;SDS011;1796;52.388;13.096;2023-05-14T11:12:26;8.80;;;4.07;;
3563;SDS011;1796;52.388;13.096;2023-05-14T11:14:54;4.47;;;3.90;;
3563;SDS011;1796;52.388;13.096;2023-05-14T11:17:25;13.80;;;3.83;;
3563;SDS011;1796;52.388;13.096;2023-05-14T11:19:53;5.73;;;3.00;;
3563;SDS011;1796;52.388;13.096;2023-05-14T11:22:22;4.40;;;3.10;;
3563;SDS011;1796;52.388;13.096;2023-05-14T11:24:49;5.87;;;3.60;;
3563;SDS011;1796;52.388;13.096;2023-05-14T11:27:16;6.70;;;3.90;;
3563;SDS011;1796;52.388;13.096;2023-05-14T11:29:44;12.17;;;3.17;;
3563;SDS011;1796;52.388;13.096;2023-05-14T11:32:12;6.53;;;3.67;;
3563;SDS011;1796;52.388;13.096;2023-05-14T11:34:42;4.13;;;3.80;;
3563;SDS011;1796;52.388;13.096;2023-05-14T11:37:10;5.17;;;3.57;;
3563;SDS011;1796;52.388;13.096;2023-05-14T11:39:38;7.70;;;3.63;;
3563;SDS011;1796;52.388;13.096;2023-05-14T11:42:08;6.47;;;3.63;;
3563;SDS011;1796;52.388;13.096;2023-05-14T11:44:38;7.30;;;3.93;;
3563;SDS011;1796;52.388;13.096;2023-05-14T11:47:08;4.80;;;3.23;;
3563;SDS011;1796;52.388;13.096;2023-05-14T11:49:35;6.97;;;3.40;;
3563;SDS011;1796;52.388;13.096;2023-05-14T11:52:04;12.33;;;3.40;;
3563;SDS011;1796;52.388;13.096;2023-05-14T11:54:33;7.67;;;3.57;;
3563;SDS011;1796;52.388;13.096;2023-05-14T11:57:01;2.90;;;2.70;;
3563;SDS011;1796;52.388;13.096;2023-05-14T11:59:29;7.80;;;3.37;;
3563;SDS011;1796;52.388;13.096;2023-05-14T12:01:57;3.40;;;3.10;;
3563;SDS011;1796;52.388;13.096;2023-05-14T12:04:24;10.43;;;3.47;;
3563;SDS011;1796;52.388;13.096;2023-05-14T12:06:51;7.00;;;2.83;;
3563;SDS011;1796;52.388;13.096;2023-05-14T12:09:20;4.77;;;3.20;;
3563;SDS011;1796;52.388;13.096;2023-05-14T12:11:48;3.23;;;2.77;;
3563;SDS011;1796;52.388;13.096;2023-05-14T12:14:17;4.07;;;3.40;;
3563;SDS011;1796;52.388;13.096;2023-05-14T12:16:45;8.03;;;3.30;;
3563;SDS011;1796;52.388;13.096;2023-05-14T12:19:13;8.37;;;3.53;;
3563;SDS011;1796;52.388;13.096;2023-05-14T12:21:41;5.70;;;3.03;;
3563;SDS011;1796;52.388;13.096;2023-05-14T12:24:09;3.23;;;3.00;;
3563;SDS011;1796;52.388;13.096;2023-05-14T12:26:38;8.03;;;3.60;;
3563;SDS011;1796;52.388;13.096;2023-05-14T12:29:05;4.30;;;3.43;;
3563;SDS011;1796;52.388;13.096;2023-05-14T12:31:33;4.57;;;3.10;;
3563;SDS011;1796;52.388;13.096;2023-05-14T12:34:01;3.47;;;3.17;;
3563;SDS011;1796;52.388;13.096;2023-05-14T12:36:29;5.13;;;3.23;;
3563;SDS011;1796;52.388;13.096;2023-05-14T12:38:57;4.07;;;3.67;;
3563;SDS011;1796;52.388;13.096;2023-05-14T12:41:27;3.40;;;3.20;;
3563;SDS011;1796;52.388;13.096;2023-05-14T12:43:56;13.67;;;3.60;;
3563;SDS011;1796;52.388;13.096;2023-05-14T12:46:24;3.80;;;3.33;;
3563;SDS011;1796;52.388;13.096;2023-05-14T12:48:52;5.57;;;3.40;;
3563;SDS011;1796;52.388;13.096;2023-05-14T12:51:19;6.90;;;3.00;;
3563;SDS011;1796;52.388;13.096;2023-05-14T12:53:46;3.63;;;3.30;;
3563;SDS011;1796;52.388;13.096;2023-05-14T12:56:13;4.10;;;3.10;;
3563;SDS011;1796;52.388;13.096;2023-05-14T12:58:40;5.80;;;3.50;;
3563;SDS011;1796;52.388;13.096;2023-05-14T13:01:08;3.43;;;3.23;;
3563;SDS011;1796;52.388;13.096;2023-05-14T13:03:35;3.37;;;3.13;;
3563;SDS011;1796;52.388;13.096;2023-05-14T13:06:02;9.90;;;4.10;;
3563;SDS011;1796;52.388;13.096;2023-05-14T13:08:29;4.03;;;3.63;;
3563;SDS011;1796;52.388;13.096;2023-05-14T13:10:56;3.67;;;3.43;;
3563;SDS011;1796;52.388;13.096;2023-05-14T13:13:23;4.10;;;3.33;;
3563;SDS011;1796;52.388;13.096;2023-05-14T13:15:50;4.03;;;3.73;;
3563;SDS011;1796;52.388;13.096;2023-05-14T13:18:19;3.50;;;3.20;;
3563;SDS011;1796;52.388;13.096;2023-05-14T13:20:46;3.60;;;3.40;;
3563;SDS011;1796;52.388;13.096;2023-05-14T13:23:13;4.27;;;3.33;;
3563;SDS011;1796;52.388;13.096;2023-05-14T13:25:42;6.53;;;2.87;;
3563;SDS011;1796;52.388;13.096;2023-05-14T13:28:09;7.83;;;3.00;;
3563;SDS011;1796;52.388;13.096;2023-05-14T13:30:36;3.20;;;3.00;;
3563;SDS011;1796;52.388;13.096;2023-05-14T13:33:03;5.00;;;2.93;;
3563;SDS011;1796;52.388;13.096;2023-05-14T13:35:34;3.57;;;3.27;;
3563;SDS011;1796;52.388;13.096;2023-05-14T13:38:03;6.87;;;3.13;;
3563;SDS011;1796;52.388;13.096;2023-05-14T13:40:37;3.60;;;3.30;;
3563;SDS011;1796;52.388;13.096;2023-05-14T13:43:05;5.17;;;2.80;;
3563;SDS011;1796;52.388;13.096;2023-05-14T13:45:32;7.50;;;3.03;;
3563;SDS011;1796;52.388;13.096;2023-05-14T13:47:59;3.40;;;3.20;;
3563;SDS011;1796;52.388;13.096;2023-05-14T13:50:26;3.20;;;3.00;;
3563;SDS011;1796;52.388;13.096;2023-05-14T13:52:54;2.93;;;2.73;;
3563;SDS011;1796;52.388;13.096;2023-05-14T13:55:21;3.40;;;3.20;;
3563;SDS011;1796;52.388;13.096;2023-05-14T13:57:48;6.77;;;3.20;;
3563;SDS011;1796;52.388;13.096;2023-05-14T14:00:15;3.47;;;3.17;;
3563;SDS011;1796;52.388;13.096;2023-05-14T14:02:42;4.77;;;3.67;;
3563;SDS011;1796;52.388;13.096;2023-05-14T14:05:09;6.37;;;3.33;;
3563;SDS011;1796;52.388;13.096;2023-05-14T14:07:36;6.80;;;4.27;;
3563;SDS011;1796;52.388;13.096;2023-05-14T14:10:07;5.03;;;3.10;;
3563;SDS011;1796;52.388;13.096;2023-05-14T14:12:34;3.53;;;3.33;;
3563;SDS011;1796;52.388;13.096;2023-05-14T14:15:01;4.67;;;2.70;;
3563;SDS011;1796;52.388;13.096;2023-05-14T14:17:28;6.87;;;3.20;;
3563;SDS011;1796;52.388;13.096;2023-05-14T14:19:55;9.40;;;4.00;;
3563;SDS011;1796;52.388;13.096;2023-05-14T14:22:22;3.20;;;2.90;;
3563;SDS011;1796;52.388;13.096;2023-05-14T14:24:49;3.67;;;3.37;;
3563;SDS011;1796;52.388;13.096;2023-05-14T14:27:17;3.70;;;3.10;;
3563;SDS011;1796;52.388;13.096;2023-05-14T14:29:44;11.40;;;3.80;;
3563;SDS011;1796;52.388;13.096;2023-05-14T14:32:11;4.63;;;3.60;;
3563;SDS011;1796;52.388;13.096;2023-05-14T14:34:38;6.80;;;2.80;;
3563;SDS011;1796;52.388;13.096;2023-05-14T14:37:05;7.60;;;3.20;;
3563;SDS011;1796;52.388;13.096;2023-05-14T14:39:32;4.30;;;3.40;;
3563;SDS011;1796;52.388;13.096;2023-05-14T14:41:59;8.80;;;3.60;;
3563;SDS011;1796;52.388;13.096;2023-05-14T14:44:27;4.83;;;4.10;;
3563;SDS011;1796;52.388;13.096;2023-05-14T14:46:54;4.30;;;3.90;;
3563;SDS011;1796;52.388;13.096;2023-05-14T14:49:21;13.80;;;3.77;;
3563;SDS011;1796;52.388;13.096;2023-05-14T14:51:48;3.73;;;3.47;;
3563;SDS011;1796;52.388;13.096;2023-05-14T14:54:15;3.77;;;3.50;;
3563;SDS011;1796;52.388;13.096;2023-05-14T14:56:42;3.60;;;3.30;;